Terminal Aerodrome Forecast
Issued by NWS

Home | Current Version | Previous Version | Text Only | Print | Product List | Glossary On
Versions: 1 2 3 4 5 6 7 8 9 10 11 12 13 14
000
FTUS45 KRIW 271735
TAFCPR
TAF
KCPR 271735Z 2718/2818 22018G28KT P6SM SCT120
     FM272100 23025G38KT P6SM SCT100
     FM272300 26025G38KT P6SM FEW100
     FM280300 26020G30KT P6SM SKC
     FM280600 02008KT P6SM SKC
     FM280900 VRB05KT P6SM SKC
     FM281500 25015G25KT P6SM SKC=

USA.gov is the U.S. government's official web portal to all federal, state and local government web resources and services.